Terminal Aerodrome Forecast
Issued by NWS Bismarck, ND

Home | Current Version | Previous Version | Graphics & Text | Print | Product List | Glossary On
Versions: 1 2 3 4 5 6 7 8 9 10 11 12 13 14 15 16 17 18 19 20
222
FTUS43 KBIS 270558 AAB
TAFBIS
TAF AMD
KBIS 270558Z 2706/2806 08006KT 4SM -RA BR OVC008
      TEMPO 2706/2710 2SM -RA BR OVC005
     FM271200 06008KT 3SM -RA BR OVC008
     FM271500 06011KT 5SM -RA BR OVC015
     FM271900 06016G24KT P6SM -RA OVC035
     FM280000 05010KT P6SM -RA OVC070=

USA.gov is the U.S. government's official web portal to all federal, state and local government web resources and services.